sensor_id;sensor_type;location;lat;lon;timestamp;P1;durP1;ratioP1;P2;durP2;ratioP2
22557;SDS011;11445;53.816;8.902;2023-11-19T00:02:18;5.25;;;4.57;;
22557;SDS011;11445;53.816;8.902;2023-11-19T00:04:47;6.88;;;5.47;;
22557;SDS011;11445;53.816;8.902;2023-11-19T00:07:14;6.72;;;5.05;;
22557;SDS011;11445;53.816;8.902;2023-11-19T00:09:41;7.35;;;4.88;;
22557;SDS011;11445;53.816;8.902;2023-11-19T00:12:08;5.97;;;4.68;;
22557;SDS011;11445;53.816;8.902;2023-11-19T00:14:35;6.38;;;4.70;;
22557;SDS011;11445;53.816;8.902;2023-11-19T00:17:02;8.32;;;4.53;;
22557;SDS011;11445;53.816;8.902;2023-11-19T00:19:30;5.10;;;4.50;;
22557;SDS011;11445;53.816;8.902;2023-11-19T00:21:58;4.32;;;3.92;;
22557;SDS011;11445;53.816;8.902;2023-11-19T00:24:28;5.82;;;4.85;;
22557;SDS011;11445;53.816;8.902;2023-11-19T00:26:55;4.80;;;4.28;;
22557;SDS011;11445;53.816;8.902;2023-11-19T00:29:22;8.48;;;4.53;;
22557;SDS011;11445;53.816;8.902;2023-11-19T00:31:49;5.07;;;4.53;;
22557;SDS011;11445;53.816;8.902;2023-11-19T00:34:16;5.25;;;4.47;;
22557;SDS011;11445;53.816;8.902;2023-11-19T00:36:46;5.35;;;4.85;;
22557;SDS011;11445;53.816;8.902;2023-11-19T00:39:17;5.82;;;5.10;;
22557;SDS011;11445;53.816;8.902;2023-11-19T00:41:46;6.47;;;4.75;;
22557;SDS011;11445;53.816;8.902;2023-11-19T00:44:13;5.63;;;5.00;;
22557;SDS011;11445;53.816;8.902;2023-11-19T00:46:40;5.95;;;5.10;;
22557;SDS011;11445;53.816;8.902;2023-11-19T00:49:07;5.03;;;4.53;;
22557;SDS011;11445;53.816;8.902;2023-11-19T00:51:36;6.88;;;5.32;;
22557;SDS011;11445;53.816;8.902;2023-11-19T00:54:03;8.32;;;5.15;;
22557;SDS011;11445;53.816;8.902;2023-11-19T00:56:32;6.28;;;5.10;;
22557;SDS011;11445;53.816;8.902;2023-11-19T00:58:59;5.68;;;5.07;;
22557;SDS011;11445;53.816;8.902;2023-11-19T01:01:26;6.65;;;5.38;;
22557;SDS011;11445;53.816;8.902;2023-11-19T01:03:52;5.88;;;5.15;;
22557;SDS011;11445;53.816;8.902;2023-11-19T01:06:26;5.60;;;4.72;;
22557;SDS011;11445;53.816;8.902;2023-11-19T01:08:53;5.82;;;4.80;;
22557;SDS011;11445;53.816;8.902;2023-11-19T01:11:21;6.22;;;4.90;;
22557;SDS011;11445;53.816;8.902;2023-11-19T01:13:50;6.38;;;4.97;;
22557;SDS011;11445;53.816;8.902;2023-11-19T01:16:18;7.28;;;5.18;;
22557;SDS011;11445;53.816;8.902;2023-11-19T01:18:46;5.65;;;4.50;;
22557;SDS011;11445;53.816;8.902;2023-11-19T01:21:13;5.63;;;4.80;;
22557;SDS011;11445;53.816;8.902;2023-11-19T01:23:40;5.95;;;4.85;;
22557;SDS011;11445;53.816;8.902;2023-11-19T01:26:08;7.03;;;5.13;;
22557;SDS011;11445;53.816;8.902;2023-11-19T01:28:37;7.10;;;5.40;;
22557;SDS011;11445;53.816;8.902;2023-11-19T01:31:11;5.93;;;4.70;;
22557;SDS011;11445;53.816;8.902;2023-11-19T01:33:38;8.30;;;5.28;;
22557;SDS011;11445;53.816;8.902;2023-11-19T01:36:06;7.20;;;5.25;;
22557;SDS011;11445;53.816;8.902;2023-11-19T01:38:34;6.70;;;5.03;;
22557;SDS011;11445;53.816;8.902;2023-11-19T01:41:01;7.13;;;5.32;;
22557;SDS011;11445;53.816;8.902;2023-11-19T01:43:32;7.45;;;5.65;;
22557;SDS011;11445;53.816;8.902;2023-11-19T01:45:59;7.03;;;5.35;;
22557;SDS011;11445;53.816;8.902;2023-11-19T01:48:27;6.82;;;5.35;;
22557;SDS011;11445;53.816;8.902;2023-11-19T01:50:55;8.40;;;6.10;;
22557;SDS011;11445;53.816;8.902;2023-11-19T01:53:23;7.45;;;5.72;;
22557;SDS011;11445;53.816;8.902;2023-11-19T01:55:50;13.40;;;6.20;;
22557;SDS011;11445;53.816;8.902;2023-11-19T01:58:18;9.93;;;6.57;;
22557;SDS011;11445;53.816;8.902;2023-11-19T02:00:45;8.35;;;6.03;;
22557;SDS011;11445;53.816;8.902;2023-11-19T02:03:12;10.82;;;6.88;;
22557;SDS011;11445;53.816;8.902;2023-11-19T02:05:41;11.52;;;6.95;;
22557;SDS011;11445;53.816;8.902;2023-11-19T02:08:09;13.57;;;7.28;;
22557;SDS011;11445;53.816;8.902;2023-11-19T02:10:35;10.25;;;7.18;;
22557;SDS011;11445;53.816;8.902;2023-11-19T02:13:03;9.95;;;6.95;;
22557;SDS011;11445;53.816;8.902;2023-11-19T02:15:31;12.15;;;7.85;;
22557;SDS011;11445;53.816;8.902;2023-11-19T02:20:48;17.05;;;8.63;;
22557;SDS011;11445;53.816;8.902;2023-11-19T02:23:15;16.55;;;9.10;;
22557;SDS011;11445;53.816;8.902;2023-11-19T02:25:42;17.85;;;9.10;;
22557;SDS011;11445;53.816;8.902;2023-11-19T02:28:16;21.25;;;10.18;;
22557;SDS011;11445;53.816;8.902;2023-11-19T02:30:43;23.90;;;10.18;;
22557;SDS011;11445;53.816;8.902;2023-11-19T02:33:10;22.70;;;9.77;;
22557;SDS011;11445;53.816;8.902;2023-11-19T02:35:37;21.63;;;10.98;;
22557;SDS011;11445;53.816;8.902;2023-11-19T02:38:05;27.88;;;11.88;;
22557;SDS011;11445;53.816;8.902;2023-11-19T02:40:33;23.23;;;11.68;;
22557;SDS011;11445;53.816;8.902;2023-11-19T02:43:00;22.77;;;11.40;;
22557;SDS011;11445;53.816;8.902;2023-11-19T02:45:31;28.33;;;13.15;;
22557;SDS011;11445;53.816;8.902;2023-11-19T02:47:58;24.63;;;12.48;;
22557;SDS011;11445;53.816;8.902;2023-11-19T02:50:27;30.30;;;13.20;;
22557;SDS011;11445;53.816;8.902;2023-11-19T02:52:54;26.92;;;12.80;;
22557;SDS011;11445;53.816;8.902;2023-11-19T02:55:22;31.40;;;13.77;;
22557;SDS011;11445;53.816;8.902;2023-11-19T02:57:49;38.03;;;14.50;;
22557;SDS011;11445;53.816;8.902;2023-11-19T03:00:18;34.58;;;16.10;;
22557;SDS011;11445;53.816;8.902;2023-11-19T03:02:50;45.42;;;16.67;;
22557;SDS011;11445;53.816;8.902;2023-11-19T03:05:24;42.50;;;16.40;;
22557;SDS011;11445;53.816;8.902;2023-11-19T03:07:51;53.08;;;17.95;;
22557;SDS011;11445;53.816;8.902;2023-11-19T03:10:18;55.33;;;19.23;;
22557;SDS011;11445;53.816;8.902;2023-11-19T03:12:45;59.88;;;21.25;;
22557;SDS011;11445;53.816;8.902;2023-11-19T03:15:12;65.72;;;23.30;;
22557;SDS011;11445;53.816;8.902;2023-11-19T03:17:38;70.43;;;23.55;;
22557;SDS011;11445;53.816;8.902;2023-11-19T03:20:07;73.22;;;24.70;;
22557;SDS011;11445;53.816;8.902;2023-11-19T03:22:36;82.55;;;24.83;;
22557;SDS011;11445;53.816;8.902;2023-11-19T03:25:04;89.13;;;26.35;;
22557;SDS011;11445;53.816;8.902;2023-11-19T03:27:33;97.75;;;27.48;;
22557;SDS011;11445;53.816;8.902;2023-11-19T03:30:00;89.35;;;27.30;;
22557;SDS011;11445;53.816;8.902;2023-11-19T03:32:29;82.80;;;26.33;;
22557;SDS011;11445;53.816;8.902;2023-11-19T03:34:56;88.20;;;27.05;;
22557;SDS011;11445;53.816;8.902;2023-11-19T03:37:25;94.85;;;27.02;;
22557;SDS011;11445;53.816;8.902;2023-11-19T03:39:53;86.20;;;26.05;;
22557;SDS011;11445;53.816;8.902;2023-11-19T03:42:20;90.78;;;26.33;;
22557;SDS011;11445;53.816;8.902;2023-11-19T03:44:47;89.90;;;26.63;;
22557;SDS011;11445;53.816;8.902;2023-11-19T03:47:15;89.72;;;27.05;;
22557;SDS011;11445;53.816;8.902;2023-11-19T03:49:42;87.95;;;26.65;;
22557;SDS011;11445;53.816;8.902;2023-11-19T03:52:09;93.10;;;26.63;;
22557;SDS011;11445;53.816;8.902;2023-11-19T03:54:37;98.22;;;25.75;;
22557;SDS011;11445;53.816;8.902;2023-11-19T03:57:04;90.60;;;26.05;;
22557;SDS011;11445;53.816;8.902;2023-11-19T03:59:31;99.55;;;25.73;;
22557;SDS011;11445;53.816;8.902;2023-11-19T04:01:58;95.95;;;26.23;;
22557;SDS011;11445;53.816;8.902;2023-11-19T04:04:27;90.68;;;24.92;;
22557;SDS011;11445;53.816;8.902;2023-11-19T04:06:55;70.90;;;21.42;;
22557;SDS011;11445;53.816;8.902;2023-11-19T04:09:23;80.95;;;23.10;;
22557;SDS011;11445;53.816;8.902;2023-11-19T04:11:51;80.38;;;22.20;;
22557;SDS011;11445;53.816;8.902;2023-11-19T04:14:18;69.05;;;21.38;;
22557;SDS011;11445;53.816;8.902;2023-11-19T04:16:45;64.38;;;19.35;;
22557;SDS011;11445;53.816;8.902;2023-11-19T04:19:13;72.47;;;20.23;;
22557;SDS011;11445;53.816;8.902;2023-11-19T04:21:39;81.13;;;19.83;;
22557;SDS011;11445;53.816;8.902;2023-11-19T04:24:07;81.28;;;20.48;;
22557;SDS011;11445;53.816;8.902;2023-11-19T04:26:39;73.65;;;19.27;;
22557;SDS011;11445;53.816;8.902;2023-11-19T04:29:09;65.28;;;17.70;;
22557;SDS011;11445;53.816;8.902;2023-11-19T04:31:37;71.30;;;18.13;;
22557;SDS011;11445;53.816;8.902;2023-11-19T04:34:05;79.75;;;17.27;;
22557;SDS011;11445;53.816;8.902;2023-11-19T04:36:32;72.93;;;18.20;;
22557;SDS011;11445;53.816;8.902;2023-11-19T04:38:59;71.05;;;18.05;;
22557;SDS011;11445;53.816;8.902;2023-11-19T04:41:26;78.63;;;17.95;;
22557;SDS011;11445;53.816;8.902;2023-11-19T04:43:53;70.97;;;16.77;;
22557;SDS011;11445;53.816;8.902;2023-11-19T04:46:21;77.90;;;17.13;;
22557;SDS011;11445;53.816;8.902;2023-11-19T04:48:48;72.20;;;15.55;;
22557;SDS011;11445;53.816;8.902;2023-11-19T04:51:16;54.20;;;14.93;;
22557;SDS011;11445;53.816;8.902;2023-11-19T04:53:42;71.05;;;15.15;;
22557;SDS011;11445;53.816;8.902;2023-11-19T04:56:10;65.15;;;14.63;;
22557;SDS011;11445;53.816;8.902;2023-11-19T04:58:38;54.42;;;14.88;;
22557;SDS011;11445;53.816;8.902;2023-11-19T05:01:05;62.05;;;12.75;;
22557;SDS011;11445;53.816;8.902;2023-11-19T05:03:33;68.65;;;14.45;;
22557;SDS011;11445;53.816;8.902;2023-11-19T05:06:01;60.00;;;14.35;;
22557;SDS011;11445;53.816;8.902;2023-11-19T05:08:28;67.15;;;12.63;;
22557;SDS011;11445;53.816;8.902;2023-11-19T05:10:55;54.08;;;12.65;;
22557;SDS011;11445;53.816;8.902;2023-11-19T05:13:22;60.75;;;12.20;;
22557;SDS011;11445;53.816;8.902;2023-11-19T05:15:49;55.10;;;11.93;;
22557;SDS011;11445;53.816;8.902;2023-11-19T05:18:16;48.38;;;11.10;;
22557;SDS011;11445;53.816;8.902;2023-11-19T05:20:45;61.38;;;11.00;;
22557;SDS011;11445;53.816;8.902;2023-11-19T05:23:12;56.38;;;11.50;;
22557;SDS011;11445;53.816;8.902;2023-11-19T05:25:38;65.03;;;10.80;;
22557;SDS011;11445;53.816;8.902;2023-11-19T05:28:05;57.03;;;10.07;;
22557;SDS011;11445;53.816;8.902;2023-11-19T05:30:33;57.30;;;11.23;;
22557;SDS011;11445;53.816;8.902;2023-11-19T05:33:00;60.10;;;9.75;;
22557;SDS011;11445;53.816;8.902;2023-11-19T05:35:27;59.20;;;9.90;;
22557;SDS011;11445;53.816;8.902;2023-11-19T05:37:55;58.95;;;9.20;;
22557;SDS011;11445;53.816;8.902;2023-11-19T05:40:21;53.75;;;9.43;;
22557;SDS011;11445;53.816;8.902;2023-11-19T05:42:48;69.50;;;9.73;;
22557;SDS011;11445;53.816;8.902;2023-11-19T05:45:15;58.45;;;9.15;;
22557;SDS011;11445;53.816;8.902;2023-11-19T05:47:42;63.55;;;9.57;;
22557;SDS011;11445;53.816;8.902;2023-11-19T05:50:09;53.92;;;9.55;;
22557;SDS011;11445;53.816;8.902;2023-11-19T05:52:36;62.28;;;8.38;;
22557;SDS011;11445;53.816;8.902;2023-11-19T05:55:06;66.68;;;9.05;;
22557;SDS011;11445;53.816;8.902;2023-11-19T05:57:35;66.55;;;7.93;;
22557;SDS011;11445;53.816;8.902;2023-11-19T06:00:02;54.25;;;9.05;;
22557;SDS011;11445;53.816;8.902;2023-11-19T06:02:32;62.05;;;9.57;;
22557;SDS011;11445;53.816;8.902;2023-11-19T06:04:59;83.57;;;10.35;;
22557;SDS011;11445;53.816;8.902;2023-11-19T06:07:26;58.80;;;7.80;;
22557;SDS011;11445;53.816;8.902;2023-11-19T06:09:53;63.35;;;8.70;;
22557;SDS011;11445;53.816;8.902;2023-11-19T06:12:21;57.33;;;8.80;;
22557;SDS011;11445;53.816;8.902;2023-11-19T06:14:48;68.47;;;8.70;;
22557;SDS011;11445;53.816;8.902;2023-11-19T06:17:15;66.63;;;9.15;;
22557;SDS011;11445;53.816;8.902;2023-11-19T06:19:42;52.80;;;7.15;;
22557;SDS011;11445;53.816;8.902;2023-11-19T06:22:10;66.03;;;9.55;;
22557;SDS011;11445;53.816;8.902;2023-11-19T06:24:37;61.72;;;8.65;;
22557;SDS011;11445;53.816;8.902;2023-11-19T06:27:03;53.28;;;8.60;;
22557;SDS011;11445;53.816;8.902;2023-11-19T06:29:32;62.13;;;8.52;;
22557;SDS011;11445;53.816;8.902;2023-11-19T06:31:58;46.13;;;7.43;;
22557;SDS011;11445;53.816;8.902;2023-11-19T06:34:25;51.45;;;8.23;;
22557;SDS011;11445;53.816;8.902;2023-11-19T06:36:52;53.35;;;7.28;;
22557;SDS011;11445;53.816;8.902;2023-11-19T06:39:19;63.60;;;8.35;;
22557;SDS011;11445;53.816;8.902;2023-11-19T06:41:46;58.17;;;6.85;;
22557;SDS011;11445;53.816;8.902;2023-11-19T06:44:13;59.03;;;8.40;;
22557;SDS011;11445;53.816;8.902;2023-11-19T06:46:42;56.88;;;7.22;;
22557;SDS011;11445;53.816;8.902;2023-11-19T06:49:08;55.35;;;7.60;;
22557;SDS011;11445;53.816;8.902;2023-11-19T06:51:35;61.25;;;8.40;;
22557;SDS011;11445;53.816;8.902;2023-11-19T06:54:06;71.68;;;8.05;;
22557;SDS011;11445;53.816;8.902;2023-11-19T06:56:33;54.45;;;8.45;;
22557;SDS011;11445;53.816;8.902;2023-11-19T06:59:00;50.60;;;8.23;;
22557;SDS011;11445;53.816;8.902;2023-11-19T07:01:27;56.38;;;8.63;;
22557;SDS011;11445;53.816;8.902;2023-11-19T07:03:55;52.85;;;6.93;;
22557;SDS011;11445;53.816;8.902;2023-11-19T07:06:23;67.45;;;8.43;;
22557;SDS011;11445;53.816;8.902;2023-11-19T07:08:49;66.07;;;7.28;;
22557;SDS011;11445;53.816;8.902;2023-11-19T07:11:16;53.08;;;7.82;;
22557;SDS011;11445;53.816;8.902;2023-11-19T07:13:43;54.47;;;7.47;;
22557;SDS011;11445;53.816;8.902;2023-11-19T07:16:11;42.67;;;6.72;;
22557;SDS011;11445;53.816;8.902;2023-11-19T07:18:40;55.30;;;7.38;;
22557;SDS011;11445;53.816;8.902;2023-11-19T07:21:08;56.83;;;7.05;;
22557;SDS011;11445;53.816;8.902;2023-11-19T07:23:37;58.30;;;6.80;;
22557;SDS011;11445;53.816;8.902;2023-11-19T07:26:04;54.85;;;7.40;;
22557;SDS011;11445;53.816;8.902;2023-11-19T07:28:34;52.80;;;7.82;;
22557;SDS011;11445;53.816;8.902;2023-11-19T07:31:01;66.93;;;8.82;;
22557;SDS011;11445;53.816;8.902;2023-11-19T07:33:27;63.13;;;8.75;;
22557;SDS011;11445;53.816;8.902;2023-11-19T07:35:55;50.67;;;7.55;;
22557;SDS011;11445;53.816;8.902;2023-11-19T07:38:23;49.47;;;6.30;;
22557;SDS011;11445;53.816;8.902;2023-11-19T07:40:50;59.70;;;7.57;;
22557;SDS011;11445;53.816;8.902;2023-11-19T07:43:17;49.80;;;7.28;;
22557;SDS011;11445;53.816;8.902;2023-11-19T07:45:44;48.95;;;6.13;;
22557;SDS011;11445;53.816;8.902;2023-11-19T07:48:11;60.90;;;7.57;;
22557;SDS011;11445;53.816;8.902;2023-11-19T07:50:38;53.58;;;7.25;;
22557;SDS011;11445;53.816;8.902;2023-11-19T07:53:06;59.72;;;8.65;;
22557;SDS011;11445;53.816;8.902;2023-11-19T07:55:35;63.80;;;9.95;;
22557;SDS011;11445;53.816;8.902;2023-11-19T07:58:02;49.15;;;7.68;;
22557;SDS011;11445;53.816;8.902;2023-11-19T08:00:28;50.97;;;7.68;;
22557;SDS011;11445;53.816;8.902;2023-11-19T08:02:55;56.00;;;8.65;;
22557;SDS011;11445;53.816;8.902;2023-11-19T08:05:22;56.85;;;8.15;;
22557;SDS011;11445;53.816;8.902;2023-11-19T08:07:49;54.17;;;7.70;;
22557;SDS011;11445;53.816;8.902;2023-11-19T08:10:17;64.25;;;9.02;;
22557;SDS011;11445;53.816;8.902;2023-11-19T08:12:45;57.35;;;7.20;;
22557;SDS011;11445;53.816;8.902;2023-11-19T08:15:12;51.22;;;6.75;;
22557;SDS011;11445;53.816;8.902;2023-11-19T08:17:39;46.58;;;7.43;;
22557;SDS011;11445;53.816;8.902;2023-11-19T08:20:06;43.15;;;7.32;;
22557;SDS011;11445;53.816;8.902;2023-11-19T08:22:35;64.95;;;6.93;;
22557;SDS011;11445;53.816;8.902;2023-11-19T08:25:02;47.47;;;7.65;;
22557;SDS011;11445;53.816;8.902;2023-11-19T08:27:29;49.50;;;6.38;;
22557;SDS011;11445;53.816;8.902;2023-11-19T08:29:58;58.97;;;7.70;;
22557;SDS011;11445;53.816;8.902;2023-11-19T08:32:25;50.67;;;7.38;;
22557;SDS011;11445;53.816;8.902;2023-11-19T08:34:52;57.20;;;8.10;;
22557;SDS011;11445;53.816;8.902;2023-11-19T08:37:21;54.70;;;7.20;;
22557;SDS011;11445;53.816;8.902;2023-11-19T08:39:48;56.42;;;7.63;;
22557;SDS011;11445;53.816;8.902;2023-11-19T08:42:14;54.20;;;8.95;;
22557;SDS011;11445;53.816;8.902;2023-11-19T08:44:42;65.10;;;8.63;;
22557;SDS011;11445;53.816;8.902;2023-11-19T08:47:13;60.22;;;7.20;;
22557;SDS011;11445;53.816;8.902;2023-11-19T08:49:41;65.95;;;8.10;;
22557;SDS011;11445;53.816;8.902;2023-11-19T08:52:07;49.78;;;8.25;;
22557;SDS011;11445;53.816;8.902;2023-11-19T08:54:35;51.67;;;7.90;;
22557;SDS011;11445;53.816;8.902;2023-11-19T08:57:02;55.03;;;7.60;;
22557;SDS011;11445;53.816;8.902;2023-11-19T08:59:29;54.25;;;7.82;;
22557;SDS011;11445;53.816;8.902;2023-11-19T09:01:56;55.40;;;8.75;;
22557;SDS011;11445;53.816;8.902;2023-11-19T09:04:24;50.03;;;7.38;;
22557;SDS011;11445;53.816;8.902;2023-11-19T09:06:51;60.35;;;7.95;;
22557;SDS011;11445;53.816;8.902;2023-11-19T09:09:18;55.28;;;7.13;;
22557;SDS011;11445;53.816;8.902;2023-11-19T09:11:45;50.15;;;6.97;;
22557;SDS011;11445;53.816;8.902;2023-11-19T09:14:11;57.60;;;7.05;;
22557;SDS011;11445;53.816;8.902;2023-11-19T09:16:38;62.83;;;10.23;;
22557;SDS011;11445;53.816;8.902;2023-11-19T09:19:05;60.03;;;8.57;;
22557;SDS011;11445;53.816;8.902;2023-11-19T09:21:33;59.15;;;7.80;;
22557;SDS011;11445;53.816;8.902;2023-11-19T09:24:03;43.63;;;6.53;;
22557;SDS011;11445;53.816;8.902;2023-11-19T09:26:32;49.95;;;7.97;;
22557;SDS011;11445;53.816;8.902;2023-11-19T09:28:59;51.63;;;7.53;;
22557;SDS011;11445;53.816;8.902;2023-11-19T09:31:26;60.78;;;8.57;;
22557;SDS011;11445;53.816;8.902;2023-11-19T09:33:53;47.50;;;7.78;;
22557;SDS011;11445;53.816;8.902;2023-11-19T09:36:20;61.95;;;7.57;;
22557;SDS011;11445;53.816;8.902;2023-11-19T09:38:48;59.75;;;8.40;;
22557;SDS011;11445;53.816;8.902;2023-11-19T09:41:14;48.45;;;7.28;;
22557;SDS011;11445;53.816;8.902;2023-11-19T09:43:44;57.55;;;7.75;;
22557;SDS011;11445;53.816;8.902;2023-11-19T09:46:12;46.42;;;7.05;;
22557;SDS011;11445;53.816;8.902;2023-11-19T09:48:41;57.33;;;7.57;;
22557;SDS011;11445;53.816;8.902;2023-11-19T09:51:09;54.70;;;8.18;;
22557;SDS011;11445;53.816;8.902;2023-11-19T09:53:36;52.90;;;7.25;;
22557;SDS011;11445;53.816;8.902;2023-11-19T09:56:06;53.50;;;7.75;;
22557;SDS011;11445;53.816;8.902;2023-11-19T09:58:34;62.17;;;7.47;;
22557;SDS011;11445;53.816;8.902;2023-11-19T10:01:01;51.70;;;7.30;;
22557;SDS011;11445;53.816;8.902;2023-11-19T10:03:32;52.80;;;7.80;;
22557;SDS011;11445;53.816;8.902;2023-11-19T10:05:59;59.17;;;7.97;;
22557;SDS011;11445;53.816;8.902;2023-11-19T10:08:27;58.17;;;7.63;;
22557;SDS011;11445;53.816;8.902;2023-11-19T10:10:54;47.65;;;7.45;;
22557;SDS011;11445;53.816;8.902;2023-11-19T10:13:26;57.60;;;8.85;;
22557;SDS011;11445;53.816;8.902;2023-11-19T10:15:54;49.45;;;6.38;;
22557;SDS011;11445;53.816;8.902;2023-11-19T10:18:23;43.75;;;6.97;;
22557;SDS011;11445;53.816;8.902;2023-11-19T10:20:51;56.83;;;7.95;;
22557;SDS011;11445;53.816;8.902;2023-11-19T10:23:20;42.60;;;7.60;;
22557;SDS011;11445;53.816;8.902;2023-11-19T10:25:47;54.72;;;7.50;;
22557;SDS011;11445;53.816;8.902;2023-11-19T10:28:14;65.20;;;8.18;;
22557;SDS011;11445;53.816;8.902;2023-11-19T10:30:44;56.58;;;6.97;;
22557;SDS011;11445;53.816;8.902;2023-11-19T10:33:11;53.03;;;7.85;;
22557;SDS011;11445;53.816;8.902;2023-11-19T10:35:51;59.03;;;7.72;;
22557;SDS011;11445;53.816;8.902;2023-11-19T10:38:19;61.15;;;8.95;;
22557;SDS011;11445;53.816;8.902;2023-11-19T10:40:47;66.57;;;7.65;;
22557;SDS011;11445;53.816;8.902;2023-11-19T10:43:14;55.38;;;6.72;;
22557;SDS011;11445;53.816;8.902;2023-11-19T10:45:41;52.92;;;7.72;;
22557;SDS011;11445;53.816;8.902;2023-11-19T10:48:09;51.03;;;7.63;;
22557;SDS011;11445;53.816;8.902;2023-11-19T10:50:38;61.80;;;7.30;;
22557;SDS011;11445;53.816;8.902;2023-11-19T10:53:06;53.13;;;6.72;;
22557;SDS011;11445;53.816;8.902;2023-11-19T10:55:34;58.13;;;7.00;;
22557;SDS011;11445;53.816;8.902;2023-11-19T10:58:04;47.92;;;6.95;;
22557;SDS011;11445;53.816;8.902;2023-11-19T11:00:33;55.38;;;7.93;;
22557;SDS011;11445;53.816;8.902;2023-11-19T11:03:05;42.23;;;6.23;;
22557;SDS011;11445;53.816;8.902;2023-11-19T11:05:39;52.47;;;7.03;;
22557;SDS011;11445;53.816;8.902;2023-11-19T11:08:07;55.10;;;7.13;;
22557;SDS011;11445;53.816;8.902;2023-11-19T11:10:35;73.47;;;8.73;;
22557;SDS011;11445;53.816;8.902;2023-11-19T11:13:06;56.28;;;6.93;;
22557;SDS011;11445;53.816;8.902;2023-11-19T11:15:32;49.55;;;7.13;;
22557;SDS011;11445;53.816;8.902;2023-11-19T11:18:01;61.15;;;8.30;;
22557;SDS011;11445;53.816;8.902;2023-11-19T11:20:31;46.50;;;6.35;;
22557;SDS011;11445;53.816;8.902;2023-11-19T11:23:06;64.40;;;8.02;;
22557;SDS011;11445;53.816;8.902;2023-11-19T11:26:00;47.15;;;7.47;;
22557;SDS011;11445;53.816;8.902;2023-11-19T11:28:46;52.40;;;7.45;;
22557;SDS011;11445;53.816;8.902;2023-11-19T11:31:22;59.13;;;7.85;;
22557;SDS011;11445;53.816;8.902;2023-11-19T11:34:00;52.88;;;6.97;;
22557;SDS011;11445;53.816;8.902;2023-11-19T11:36:41;37.92;;;7.28;;
22557;SDS011;11445;53.816;8.902;2023-11-19T11:39:15;55.50;;;7.15;;
22557;SDS011;11445;53.816;8.902;2023-11-19T11:41:43;56.00;;;8.07;;
22557;SDS011;11445;53.816;8.902;2023-11-19T11:44:10;39.95;;;6.20;;
22557;SDS011;11445;53.816;8.902;2023-11-19T11:46:55;39.72;;;6.10;;
22557;SDS011;11445;53.816;8.902;2023-11-19T11:49:25;54.53;;;6.65;;
22557;SDS011;11445;53.816;8.902;2023-11-19T11:52:02;41.20;;;7.13;;
22557;SDS011;11445;53.816;8.902;2023-11-19T11:54:30;44.30;;;6.35;;
22557;SDS011;11445;53.816;8.902;2023-11-19T11:57:00;52.97;;;6.93;;
22557;SDS011;11445;53.816;8.902;2023-11-19T11:59:36;40.60;;;5.85;;
22557;SDS011;11445;53.816;8.902;2023-11-19T12:02:09;51.03;;;7.55;;
22557;SDS011;11445;53.816;8.902;2023-11-19T12:04:36;43.55;;;6.47;;
22557;SDS011;11445;53.816;8.902;2023-11-19T12:07:05;50.38;;;5.95;;
22557;SDS011;11445;53.816;8.902;2023-11-19T12:09:33;46.50;;;6.60;;
22557;SDS011;11445;53.816;8.902;2023-11-19T12:12:07;38.85;;;6.43;;
22557;SDS011;11445;53.816;8.902;2023-11-19T12:20:15;60.78;;;7.88;;
22557;SDS011;11445;53.816;8.902;2023-11-19T12:22:44;47.25;;;7.32;;
22557;SDS011;11445;53.816;8.902;2023-11-19T12:25:14;49.88;;;6.97;;
22557;SDS011;11445;53.816;8.902;2023-11-19T12:27:43;52.92;;;7.05;;
22557;SDS011;11445;53.816;8.902;2023-11-19T12:30:11;40.80;;;6.82;;
22557;SDS011;11445;53.816;8.902;2023-11-19T12:32:39;38.92;;;6.47;;
22557;SDS011;11445;53.816;8.902;2023-11-19T12:35:06;43.03;;;6.63;;
22557;SDS011;11445;53.816;8.902;2023-11-19T12:37:44;38.50;;;6.10;;
22557;SDS011;11445;53.816;8.902;2023-11-19T12:40:16;40.10;;;6.75;;
22557;SDS011;11445;53.816;8.902;2023-11-19T12:42:44;50.40;;;7.95;;
22557;SDS011;11445;53.816;8.902;2023-11-19T12:45:11;45.92;;;6.80;;
22557;SDS011;11445;53.816;8.902;2023-11-19T12:47:39;41.95;;;6.50;;
22557;SDS011;11445;53.816;8.902;2023-11-19T12:50:06;49.70;;;6.93;;
22557;SDS011;11445;53.816;8.902;2023-11-19T12:52:34;54.13;;;6.22;;
22557;SDS011;11445;53.816;8.902;2023-11-19T12:55:02;39.38;;;5.82;;
22557;SDS011;11445;53.816;8.902;2023-11-19T12:57:37;33.72;;;5.68;;
22557;SDS011;11445;53.816;8.902;2023-11-19T13:00:05;29.70;;;5.30;;
22557;SDS011;11445;53.816;8.902;2023-11-19T13:02:45;30.38;;;4.75;;
22557;SDS011;11445;53.816;8.902;2023-11-19T13:05:26;33.88;;;4.60;;
22557;SDS011;11445;53.816;8.902;2023-11-19T13:07:59;33.13;;;4.50;;
22557;SDS011;11445;53.816;8.902;2023-11-19T13:10:28;24.08;;;4.10;;
22557;SDS011;11445;53.816;8.902;2023-11-19T13:13:02;22.90;;;3.10;;
22557;SDS011;11445;53.816;8.902;2023-11-19T13:15:30;13.82;;;3.00;;
22557;SDS011;11445;53.816;8.902;2023-11-19T13:17:57;13.02;;;3.25;;
22557;SDS011;11445;53.816;8.902;2023-11-19T13:20:24;27.95;;;3.38;;
22557;SDS011;11445;53.816;8.902;2023-11-19T13:22:54;25.33;;;4.13;;
22557;SDS011;11445;53.816;8.902;2023-11-19T13:25:22;20.15;;;3.75;;
22557;SDS011;11445;53.816;8.902;2023-11-19T13:27:50;18.40;;;3.63;;
22557;SDS011;11445;53.816;8.902;2023-11-19T13:30:17;24.77;;;3.90;;
22557;SDS011;11445;53.816;8.902;2023-11-19T13:32:44;15.55;;;2.40;;
22557;SDS011;11445;53.816;8.902;2023-11-19T13:35:12;15.18;;;2.88;;
22557;SDS011;11445;53.816;8.902;2023-11-19T13:37:38;9.85;;;2.03;;
22557;SDS011;11445;53.816;8.902;2023-11-19T13:40:06;12.50;;;2.35;;
22557;SDS011;11445;53.816;8.902;2023-11-19T13:42:35;8.32;;;1.63;;
22557;SDS011;11445;53.816;8.902;2023-11-19T13:45:07;5.45;;;1.58;;
22557;SDS011;11445;53.816;8.902;2023-11-19T13:47:36;6.80;;;1.83;;
22557;SDS011;11445;53.816;8.902;2023-11-19T13:50:06;4.93;;;1.52;;
22557;SDS011;11445;53.816;8.902;2023-11-19T13:52:34;10.18;;;1.42;;
22557;SDS011;11445;53.816;8.902;2023-11-19T13:55:02;4.50;;;1.17;;
22557;SDS011;11445;53.816;8.902;2023-11-19T13:57:29;6.57;;;1.67;;
22557;SDS011;11445;53.816;8.902;2023-11-19T13:59:56;11.55;;;1.83;;
22557;SDS011;11445;53.816;8.902;2023-11-19T14:02:24;11.38;;;1.63;;
22557;SDS011;11445;53.816;8.902;2023-11-19T14:04:51;17.17;;;1.33;;
22557;SDS011;11445;53.816;8.902;2023-11-19T14:07:18;13.38;;;1.58;;
22557;SDS011;11445;53.816;8.902;2023-11-19T14:09:45;15.20;;;1.42;;
22557;SDS011;11445;53.816;8.902;2023-11-19T14:12:11;15.48;;;2.28;;
22557;SDS011;11445;53.816;8.902;2023-11-19T14:14:39;11.30;;;2.13;;
22557;SDS011;11445;53.816;8.902;2023-11-19T14:17:07;18.50;;;2.30;;
22557;SDS011;11445;53.816;8.902;2023-11-19T14:19:35;15.43;;;2.42;;
22557;SDS011;11445;53.816;8.902;2023-11-19T14:22:03;27.25;;;3.30;;
22557;SDS011;11445;53.816;8.902;2023-11-19T14:24:30;19.50;;;3.60;;
22557;SDS011;11445;53.816;8.902;2023-11-19T14:26:58;27.45;;;3.25;;
22557;SDS011;11445;53.816;8.902;2023-11-19T14:29:25;21.27;;;2.92;;
22557;SDS011;11445;53.816;8.902;2023-11-19T14:31:52;22.60;;;3.25;;
22557;SDS011;11445;53.816;8.902;2023-11-19T14:34:19;25.65;;;3.55;;
22557;SDS011;11445;53.816;8.902;2023-11-19T14:36:47;23.25;;;4.05;;
22557;SDS011;11445;53.816;8.902;2023-11-19T14:39:14;25.88;;;4.60;;
22557;SDS011;11445;53.816;8.902;2023-11-19T14:41:42;37.15;;;4.75;;
22557;SDS011;11445;53.816;8.902;2023-11-19T14:44:09;28.35;;;4.10;;
22557;SDS011;11445;53.816;8.902;2023-11-19T14:46:36;33.78;;;5.05;;
22557;SDS011;11445;53.816;8.902;2023-11-19T14:49:03;37.78;;;4.80;;